createdAt,value
2023-01-22T01:16:36.013Z,101631.78
2023-01-22T01:22:03.931Z,101626.44
2023-01-22T01:24:33.239Z,101427.03
2023-01-22T01:27:02.843Z,101632.47
2023-01-22T01:29:32.259Z,101636.97
2023-01-22T01:32:02.727Z,101609.34
2023-01-22T01:34:32.174Z,101612.56
2023-01-22T01:37:01.431Z,101631.81
2023-01-22T01:39:30.828Z,101631.59
2023-01-22T01:42:00.461Z,101632.19
2023-01-22T01:44:33.034Z,101567.88
2023-01-22T01:47:07.167Z,101639.47
2023-01-22T01:49:42.259Z,101641.19
2023-01-22T01:52:14.893Z,101574.38
2023-01-22T01:54:47.068Z,101636.88
2023-01-22T01:57:22.267Z,101641.53
2023-01-22T01:59:53.286Z,101619.69
2023-01-22T02:02:24.383Z,101615.03
2023-01-22T02:04:54.750Z,101635.47
2023-01-22T02:07:23.976Z,101614.78
2023-01-22T02:09:53.140Z,101626.94
2023-01-22T02:12:22.485Z,101567.56
2023-01-22T02:14:52.049Z,101639.66
2023-01-22T02:17:23.882Z,101599.97
2023-01-22T02:19:53.707Z,101654.78
2023-01-22T02:22:26.698Z,101582.81
2023-01-22T02:24:56.654Z,101612.56
2023-01-22T02:27:25.871Z,101654.63
2023-01-22T02:29:55.826Z,101634.25
2023-01-22T02:32:24.929Z,101655.16
2023-01-22T02:34:56.072Z,101602.09
2023-01-22T02:37:26.534Z,101660.28
2023-01-22T02:39:58.316Z,101666.34
2023-01-22T02:42:28.258Z,101667.84
2023-01-22T02:44:58.078Z,101665.50
2023-01-22T02:47:28.215Z,101673.94
2023-01-22T02:49:57.587Z,101667.22
2023-01-22T02:52:28.075Z,101673.94
2023-01-22T02:54:57.348Z,101630.16
2023-01-22T02:57:26.616Z,101672.88
2023-01-22T02:59:55.879Z,101669.84
2023-01-22T03:02:25.867Z,101664.16
2023-01-22T03:05:04.896Z,101672.84
2023-01-22T03:07:45.056Z,101624.47
2023-01-22T03:10:17.705Z,101643.06
2023-01-22T03:13:06.685Z,101673.09
2023-01-22T03:15:56.525Z,101627.91
2023-01-22T03:18:43.356Z,101585.69
2023-01-22T03:21:16.691Z,101680.03
2023-01-22T03:23:50.498Z,101659.00
2023-01-22T03:26:21.698Z,101684.81
2023-01-22T03:28:51.869Z,101703.41
2023-01-22T03:31:21.459Z,101653.06
2023-01-22T03:33:51.084Z,101674.41
2023-01-22T03:36:20.325Z,101676.16
2023-01-22T03:38:55.648Z,101682.69
2023-01-22T03:41:26.651Z,101516.38
2023-01-22T03:43:58.972Z,101691.91
2023-01-22T03:46:34.834Z,101666.47
2023-01-22T03:49:04.907Z,101691.75
2023-01-22T03:51:34.484Z,101702.94
2023-01-22T03:54:06.473Z,101677.69
2023-01-22T03:56:35.643Z,101706.56
2023-01-22T03:59:11.410Z,101696.19
2023-01-22T04:01:41.120Z,101718.16
2023-01-22T04:04:11.341Z,101721.47
2023-01-22T04:06:40.894Z,101718.59
2023-01-22T04:09:11.644Z,101716.56
2023-01-22T04:11:47.665Z,101727.81
2023-01-22T04:14:18.491Z,101731.50
2023-01-22T04:16:57.377Z,101738.53
2023-01-22T04:19:43.168Z,101679.41
2023-01-22T04:22:31.968Z,101701.31
2023-01-22T04:25:02.825Z,101676.78
2023-01-22T04:27:37.782Z,101676.09
2023-01-22T04:30:08.608Z,101745.72
2023-01-22T04:32:39.010Z,101757.69
2023-01-22T04:35:28.470Z,101753.94
2023-01-22T04:38:00.252Z,101759.06
2023-01-22T04:40:31.600Z,101623.81
2023-01-22T04:43:03.005Z,101727.22
2023-01-22T04:45:32.117Z,101760.22
2023-01-22T04:48:02.227Z,101766.72
2023-01-22T04:50:34.654Z,101711.06
2023-01-22T04:53:04.144Z,101758.56
2023-01-22T04:55:34.887Z,101727.13
2023-01-22T04:58:10.444Z,101763.94
2023-01-22T05:00:39.589Z,101765.94
2023-01-22T05:03:09.305Z,101773.56
2023-01-22T05:05:38.787Z,101775.84
2023-01-22T05:08:08.007Z,101778.78
2023-01-22T05:10:40.189Z,101783.50
2023-01-22T05:13:12.209Z,101764.72
2023-01-22T05:15:41.927Z,101754.59
2023-01-22T05:18:14.385Z,101788.38
2023-01-22T05:20:53.489Z,101753.47
2023-01-22T05:23:25.126Z,101760.56
2023-01-22T05:25:55.738Z,101780.47
2023-01-22T05:28:37.704Z,101792.66
2023-01-22T05:31:27.515Z,101791.31
2023-01-22T05:34:04.726Z,101798.06
2023-01-22T05:36:34.906Z,101805.31
2023-01-22T05:39:10.737Z,101749.59
2023-01-22T05:41:41.994Z,101815.50
2023-01-22T05:44:12.570Z,101813.66
2023-01-22T05:46:43.115Z,101819.63
2023-01-22T05:49:21.770Z,101804.47
2023-01-22T05:51:53.337Z,101821.91
2023-01-22T05:54:23.217Z,101827.34
2023-01-22T05:56:54.470Z,101826.13
2023-01-22T05:59:23.745Z,101833.13
2023-01-22T06:02:03.382Z,101833.00
2023-01-22T06:04:33.789Z,101779.44
2023-01-22T06:07:11.410Z,101770.25
2023-01-22T06:09:40.776Z,101813.16
2023-01-22T06:12:11.425Z,101850.88
2023-01-22T06:14:40.486Z,101849.53
2023-01-22T06:17:10.239Z,101791.97
2023-01-22T06:19:42.041Z,101817.22
2023-01-22T06:22:11.836Z,101862.00
2023-01-22T06:24:54.385Z,101830.16
2023-01-22T06:27:28.549Z,101885.75
2023-01-22T06:30:02.799Z,101822.22
2023-01-22T06:32:33.400Z,101904.81
2023-01-22T06:35:02.880Z,101894.16
2023-01-22T06:37:32.295Z,101889.19
2023-01-22T06:40:01.657Z,101890.59
2023-01-22T06:42:43.451Z,101873.59
2023-01-22T06:45:13.463Z,101894.16
2023-01-22T06:47:48.147Z,101895.34
2023-01-22T06:50:20.873Z,101914.28
2023-01-22T06:52:50.244Z,101908.34
2023-01-22T06:55:19.483Z,101902.63
2023-01-22T06:57:55.922Z,101907.34
2023-01-22T07:00:27.154Z,101910.22
2023-01-22T07:02:57.119Z,101888.41
2023-01-22T07:05:27.524Z,101905.59
2023-01-22T07:07:57.188Z,101898.31
2023-01-22T07:10:26.451Z,101914.38
2023-01-22T07:13:00.123Z,101903.56
2023-01-22T07:15:29.277Z,101865.75
2023-01-22T07:17:58.441Z,101888.25
2023-01-22T07:20:27.887Z,101893.59
2023-01-22T07:23:00.183Z,101882.22
2023-01-22T07:25:29.887Z,101927.25
2023-01-22T07:28:03.173Z,101931.97
2023-01-22T07:30:33.063Z,101906.34
2023-01-22T07:33:03.019Z,101898.63
2023-01-22T07:35:32.531Z,101926.03
2023-01-22T07:38:04.865Z,101927.22
2023-01-22T07:40:37.546Z,101860.44
2023-01-22T07:43:15.170Z,101931.59
2023-01-22T07:45:44.258Z,101930.84
2023-01-22T07:48:14.046Z,101898.47
2023-01-22T07:50:43.134Z,101937.34
2023-01-22T07:53:12.524Z,101939.50
2023-01-22T07:55:44.275Z,101929.03
2023-01-22T07:58:14.609Z,101905.31
2023-01-22T08:00:43.985Z,101868.28
2023-01-22T08:03:15.998Z,101864.38
2023-01-22T08:05:46.090Z,101941.59
2023-01-22T08:08:17.339Z,101921.25
2023-01-22T08:10:46.984Z,101916.09
2023-01-22T08:13:17.672Z,101871.19
2023-01-22T08:16:01.107Z,101923.63
2023-01-22T08:18:31.121Z,101953.22
2023-01-22T08:21:01.538Z,101904.31
2023-01-22T08:23:31.818Z,101876.03
2023-01-22T08:26:01.553Z,101917.53
2023-01-22T08:28:32.822Z,101937.03
2023-01-22T08:31:07.797Z,101969.75
2023-01-22T08:33:39.464Z,101969.00
2023-01-22T08:36:12.738Z,101967.94
2023-01-22T08:38:42.781Z,101965.97
2023-01-22T08:41:12.499Z,101975.34
2023-01-22T08:43:43.480Z,101977.38
2023-01-22T08:46:13.283Z,101948.09
2023-01-22T08:48:47.439Z,101980.97
2023-01-22T08:51:18.994Z,101979.09
2023-01-22T08:53:48.274Z,101981.13
2023-01-22T08:56:21.151Z,101944.97
2023-01-22T08:58:52.608Z,101977.91
2023-01-22T09:01:22.569Z,101936.13
2023-01-22T09:04:19.833Z,101676.06
2023-01-22T09:06:51.125Z,101979.97
2023-01-22T09:09:24.001Z,101948.13
2023-01-22T09:11:54.065Z,101985.59
2023-01-22T09:14:25.073Z,101899.00
2023-01-22T09:16:55.646Z,101915.19
2023-01-22T09:19:24.960Z,101986.78
2023-01-22T09:21:54.319Z,101953.63
2023-01-22T09:24:25.177Z,101988.84
2023-01-22T09:26:58.996Z,101846.13
2023-01-22T09:29:29.549Z,101988.25
2023-01-22T09:32:01.129Z,102001.47
2023-01-22T09:34:30.812Z,102005.38
2023-01-22T09:37:02.736Z,102000.00
2023-01-22T09:39:32.650Z,101991.88
2023-01-22T09:42:05.515Z,102011.06
2023-01-22T09:44:40.213Z,101997.72
2023-01-22T09:47:15.502Z,101969.41
2023-01-22T09:49:55.604Z,101996.94
2023-01-22T09:52:28.843Z,101946.88
2023-01-22T09:54:58.745Z,101862.94
2023-01-22T09:57:32.601Z,101888.44
2023-01-22T10:00:04.695Z,101935.31
2023-01-22T10:02:46.093Z,101951.22
2023-01-22T10:05:23.509Z,101775.88
2023-01-22T10:07:56.061Z,101967.72
2023-01-22T10:10:28.552Z,101970.31
2023-01-22T10:13:02.219Z,101914.00
2023-01-22T10:15:32.918Z,101956.63
2023-01-22T10:18:16.875Z,101998.50
2023-01-22T10:20:47.550Z,101934.53
2023-01-22T10:23:20.521Z,101962.34
2023-01-22T10:25:51.572Z,101983.06
2023-01-22T10:28:26.867Z,102006.06
2023-01-22T10:30:59.184Z,101945.81
2023-01-22T10:33:29.771Z,102005.63
2023-01-22T10:35:59.873Z,101982.00
2023-01-22T10:38:33.739Z,101934.19
2023-01-22T10:41:04.473Z,102010.31
2023-01-22T10:43:36.104Z,101979.16
2023-01-22T10:46:17.109Z,101950.97
2023-01-22T10:48:46.813Z,101923.97
2023-01-22T10:51:18.724Z,102006.88
2023-01-22T10:53:51.285Z,102012.34
2023-01-22T10:56:33.056Z,102015.63
2023-01-22T10:59:20.201Z,101962.34
2023-01-22T11:01:57.100Z,102009.13
2023-01-22T11:04:28.944Z,102003.34
2023-01-22T11:07:03.580Z,101940.94
2023-01-22T11:09:40.785Z,101959.84
2023-01-22T11:12:19.927Z,102003.56
2023-01-22T11:14:59.886Z,102026.88
2023-01-22T11:18:12.021Z,102010.13
2023-01-22T11:20:52.742Z,101818.84
2023-01-22T11:23:34.450Z,101976.81
2023-01-22T11:26:15.356Z,102010.31
2023-01-22T11:28:54.923Z,101977.09
2023-01-22T11:31:40.865Z,101956.94
2023-01-22T11:34:42.167Z,101949.88
2023-01-22T11:37:16.233Z,102007.56
2023-01-22T11:39:59.644Z,101976.50
2023-01-22T11:42:44.893Z,102013.06
2023-01-22T11:45:55.665Z,102011.81
2023-01-22T11:48:40.966Z,101935.22
2023-01-22T11:51:24.686Z,102010.13
2023-01-22T11:54:18.947Z,102019.00
2023-01-22T11:57:10.996Z,101991.88
2023-01-22T11:59:59.647Z,102015.50
2023-01-22T12:02:53.483Z,102030.03
2023-01-22T12:05:37.310Z,101966.25
2023-01-22T12:08:18.510Z,101962.28
2023-01-22T12:11:10.706Z,102026.41
2023-01-22T12:14:21.271Z,101905.69
2023-01-22T12:17:01.226Z,101981.38
2023-01-22T12:19:46.962Z,102003.69
2023-01-22T12:22:32.289Z,102017.81
2023-01-22T12:25:13.735Z,102027.69
2023-01-22T12:27:49.298Z,102037.22
2023-01-22T12:30:24.709Z,101893.75
2023-01-22T12:32:58.804Z,102035.47
2023-01-22T12:35:31.957Z,101974.44
2023-01-22T12:38:12.476Z,101907.69
2023-01-22T12:41:09.275Z,101830.25
2023-01-22T12:43:47.970Z,101993.09
2023-01-22T12:46:25.833Z,102023.97
2023-01-22T12:49:04.793Z,102057.88
2023-01-22T12:51:40.725Z,102054.75
2023-01-22T12:54:12.214Z,102004.06
2023-01-22T12:56:41.980Z,102050.97
2023-01-22T12:59:34.070Z,102061.81
2023-01-22T13:02:23.139Z,102067.41
2023-01-22T13:04:55.518Z,101999.63
2023-01-22T13:07:37.098Z,102078.53
2023-01-22T13:10:24.298Z,101736.88
2023-01-22T13:13:05.440Z,101741.69
2023-01-22T13:15:43.777Z,102087.78
2023-01-22T13:18:21.775Z,101904.31
2023-01-22T13:21:10.530Z,102041.03
2023-01-22T13:23:46.954Z,101832.97
2023-01-22T13:26:23.393Z,101957.44
2023-01-22T13:28:57.262Z,101776.66
2023-01-22T13:32:32.907Z,101968.84
2023-01-22T13:34:20.266Z,101978.06
2023-01-22T13:36:52.400Z,102035.78
2023-01-22T13:39:26.060Z,102085.75
2023-01-22T13:41:57.411Z,102109.16
2023-01-22T13:44:32.966Z,101995.41
2023-01-22T13:47:04.467Z,102103.84
2023-01-22T13:49:36.205Z,102089.50
2023-01-22T13:52:08.602Z,102073.47
2023-01-22T13:54:43.156Z,102091.94
2023-01-22T13:57:14.784Z,102108.78
2023-01-22T13:59:54.200Z,102059.97
2023-01-22T14:02:34.009Z,102058.41
2023-01-22T14:05:17.832Z,102051.28
2023-01-22T14:07:50.085Z,102100.34
2023-01-22T14:10:24.054Z,102101.34
2023-01-22T14:13:03.949Z,102065.38
2023-01-22T14:15:34.420Z,102128.53
2023-01-22T14:18:13.552Z,102132.63
2023-01-22T14:20:44.191Z,102113.44
2023-01-22T14:23:15.148Z,102088.41
2023-01-22T14:25:52.209Z,102007.25
2023-01-22T14:28:23.143Z,102139.09
2023-01-22T14:30:55.706Z,102147.78
2023-01-22T14:33:28.439Z,102147.06
2023-01-22T14:35:58.338Z,102123.38
2023-01-22T14:38:29.570Z,102091.28
2023-01-22T14:40:59.691Z,102146.63
2023-01-22T14:43:36.086Z,102158.78
2023-01-22T14:46:08.511Z,102182.56
2023-01-22T14:48:40.214Z,102036.03
2023-01-22T14:51:11.219Z,102159.69
2023-01-22T14:53:40.678Z,102034.22
2023-01-22T14:56:11.901Z,102153.25
2023-01-22T14:58:42.299Z,102120.25
2023-01-22T15:01:22.331Z,102159.81
2023-01-22T15:03:54.364Z,102162.09
2023-01-22T15:06:25.860Z,102092.69
2023-01-22T15:08:55.478Z,102165.63
2023-01-22T15:11:25.061Z,102127.97
2023-01-22T15:13:58.037Z,101821.38
2023-01-22T15:16:28.360Z,102167.09
2023-01-22T15:19:00.635Z,102167.00
2023-01-22T15:21:31.674Z,102172.13
2023-01-22T15:24:02.416Z,102161.88
2023-01-22T15:26:35.709Z,102027.25
2023-01-22T15:29:12.525Z,102046.13
2023-01-22T15:31:43.328Z,102054.25
2023-01-22T15:34:14.662Z,102137.56
2023-01-22T15:36:47.362Z,102146.13
2023-01-22T15:39:17.152Z,101914.13
2023-01-22T15:41:47.554Z,102185.34
2023-01-22T15:44:19.495Z,102074.19
2023-01-22T15:46:52.110Z,102135.38
2023-01-22T15:49:24.178Z,102043.22
2023-01-22T15:51:53.841Z,102151.34
2023-01-22T15:54:25.637Z,102128.38
2023-01-22T15:56:55.714Z,102186.00
2023-01-22T15:59:25.412Z,102189.69
2023-01-22T16:01:54.939Z,102196.00
2023-01-22T16:04:25.980Z,101946.97
2023-01-22T17:31:22.306Z,102245.03
2023-01-22T17:33:55.778Z,102144.94
2023-01-22T17:36:28.390Z,101851.56
2023-01-22T17:38:58.403Z,102208.25
2023-01-22T17:41:28.046Z,102269.88
2023-01-22T17:43:59.097Z,102279.91
2023-01-22T17:46:31.998Z,102272.66
2023-01-22T17:49:04.909Z,102216.16
2023-01-22T17:51:35.479Z,102265.94
2023-01-22T17:54:06.440Z,102262.56
2023-01-22T17:56:37.504Z,102271.09
2023-01-22T17:59:08.637Z,102225.56
2023-01-22T18:01:40.706Z,102247.72
2023-01-22T18:04:13.448Z,102243.81
2023-01-22T18:06:45.279Z,102282.25
2023-01-22T18:09:14.733Z,102283.66
2023-01-22T18:11:44.055Z,102228.06
2023-01-22T18:14:16.971Z,102177.69
2023-01-22T18:16:47.788Z,102293.53
2023-01-22T18:19:18.915Z,102290.84
2023-01-22T18:21:48.307Z,102292.41
2023-01-22T18:24:22.967Z,102280.38
2023-01-22T18:26:54.555Z,102272.66
2023-01-22T18:29:23.958Z,102229.69
2023-01-22T18:31:55.157Z,102260.25
2023-01-22T18:34:25.008Z,102290.19
2023-01-22T18:36:54.459Z,102271.50
2023-01-22T18:39:23.665Z,102282.41
2023-01-22T18:41:53.105Z,102303.28
2023-01-22T18:44:27.722Z,102309.34
2023-01-22T18:47:01.968Z,102308.31
2023-01-22T18:49:31.622Z,102311.72
2023-01-22T18:52:02.888Z,102306.16
2023-01-22T18:54:32.892Z,102311.63
2023-01-22T18:57:02.747Z,102288.38
2023-01-22T18:59:31.988Z,102308.63
2023-01-22T19:02:03.364Z,102207.31
2023-01-22T19:04:36.236Z,102226.13
2023-01-22T19:07:06.179Z,102308.03
2023-01-22T19:09:35.763Z,102301.19
2023-01-22T19:12:07.423Z,102279.03
2023-01-22T19:14:36.992Z,102290.88
2023-01-22T19:17:09.898Z,102273.13
2023-01-22T19:19:40.210Z,102276.81
2023-01-22T19:22:09.411Z,102316.56
2023-01-22T19:24:39.089Z,102259.53
2023-01-22T19:27:08.865Z,102316.72
2023-01-22T19:29:38.454Z,102295.88
2023-01-22T19:32:15.208Z,102300.28
2023-01-22T19:34:45.731Z,102277.56
2023-01-22T19:37:15.025Z,102304.63
2023-01-22T19:39:44.431Z,102328.22
2023-01-22T19:42:15.605Z,102329.97
2023-01-22T19:44:45.612Z,102304.63
2023-01-22T19:47:16.798Z,102274.03
2023-01-22T19:49:46.665Z,102294.13
2023-01-22T19:52:16.668Z,102315.97
2023-01-22T19:54:50.875Z,102328.22
2023-01-22T19:57:20.583Z,102330.84
2023-01-22T19:59:53.199Z,102273.19
2023-01-22T20:02:24.357Z,102313.38
2023-01-22T20:04:54.081Z,102327.38
2023-01-22T20:07:25.644Z,102308.16
2023-01-22T20:09:56.398Z,102327.34
2023-01-22T20:12:26.074Z,102325.63
2023-01-22T20:14:57.360Z,102332.63
2023-01-22T20:17:29.165Z,102272.28
2023-01-22T20:19:58.912Z,102301.16
2023-01-22T20:22:28.966Z,102327.38
2023-01-22T20:25:01.809Z,102306.41
2023-01-22T20:27:32.375Z,102334.34
2023-01-22T20:30:03.130Z,102311.63
2023-01-22T20:32:34.376Z,102279.31
2023-01-22T20:35:04.045Z,102334.34
2023-01-22T20:37:34.278Z,102341.34
2023-01-22T20:40:04.729Z,102313.38
2023-01-22T20:42:35.877Z,102295.91
2023-01-22T20:45:06.000Z,102318.63
2023-01-22T20:47:37.149Z,102191.09
2023-01-22T20:50:09.734Z,102349.22
2023-01-22T20:52:41.358Z,102350.94
2023-01-22T20:55:15.605Z,102365.81
2023-01-22T20:57:45.247Z,102357.97
2023-01-22T21:00:16.524Z,102349.19
2023-01-22T21:02:54.419Z,102329.97
2023-01-22T21:05:27.406Z,101955.38
2023-01-22T21:08:01.947Z,102230.38
2023-01-22T21:10:31.608Z,102360.56
2023-01-22T21:13:00.995Z,102336.13
2023-01-22T21:15:30.797Z,102358.84
2023-01-22T21:18:01.400Z,102353.59
2023-01-22T21:20:31.641Z,102362.31
2023-01-22T21:23:01.229Z,102364.09
2023-01-22T21:25:30.353Z,102322.97
2023-01-22T21:28:00.020Z,102364.06
2023-01-22T21:30:32.735Z,102262.69
2023-01-22T21:33:03.813Z,102325.63
2023-01-22T21:35:34.053Z,102366.69
2023-01-22T21:38:04.433Z,102321.25
2023-01-22T21:40:34.129Z,102295.91
2023-01-22T21:43:21.584Z,102357.09
2023-01-22T21:46:09.049Z,102353.59
2023-01-22T21:48:39.883Z,102356.19
2023-01-22T21:51:09.248Z,102350.09
2023-01-22T21:53:39.704Z,102354.44
2023-01-22T21:56:09.884Z,102349.22
2023-01-22T21:58:45.306Z,102349.22
2023-01-22T22:01:17.740Z,102347.47
